sensor_id;sensor_type;location;lat;lon;timestamp;pressure;altitude;pressure_sealevel;temperature;humidity
62031;BME280;62035;52.094;5.112;2023-02-21T00:00:46;102173.53;;;10.35;100.00
62031;BME280;62035;52.094;5.112;2023-02-21T00:03:32;102178.13;;;10.33;100.00
62031;BME280;62035;52.094;5.112;2023-02-21T00:06:18;102186.34;;;10.30;100.00
62031;BME280;62035;52.094;5.112;2023-02-21T00:09:03;102187.81;;;10.34;100.00
62031;BME280;62035;52.094;5.112;2023-02-21T00:11:48;102175.72;;;10.18;100.00
62031;BME280;62035;52.094;5.112;2023-02-21T00:14:35;102185.16;;;10.46;100.00
62031;BME280;62035;52.094;5.112;2023-02-21T00:17:20;102182.66;;;10.55;100.00
62031;BME280;62035;52.094;5.112;2023-02-21T00:20:06;102176.94;;;10.49;100.00
62031;BME280;62035;52.094;5.112;2023-02-21T00:22:54;102180.06;;;10.43;100.00
62031;BME280;62035;52.094;5.112;2023-02-21T00:25:39;102174.19;;;10.50;100.00
62031;BME280;62035;52.094;5.112;2023-02-21T00:28:24;102186.41;;;10.05;100.00
62031;BME280;62035;52.094;5.112;2023-02-21T00:31:09;102180.56;;;10.37;100.00
62031;BME280;62035;52.094;5.112;2023-02-21T00:33:54;102173.28;;;10.15;100.00
62031;BME280;62035;52.094;5.112;2023-02-21T00:36:40;102180.78;;;10.33;100.00
62031;BME280;62035;52.094;5.112;2023-02-21T00:39:26;102179.38;;;10.04;100.00
62031;BME280;62035;52.094;5.112;2023-02-21T00:42:11;102183.50;;;10.21;100.00
62031;BME280;62035;52.094;5.112;2023-02-21T00:44:56;102180.97;;;10.07;100.00
62031;BME280;62035;52.094;5.112;2023-02-21T00:47:41;102170.78;;;10.00;100.00
62031;BME280;62035;52.094;5.112;2023-02-21T00:50:27;102175.66;;;10.07;100.00
62031;BME280;62035;52.094;5.112;2023-02-21T00:53:12;102168.69;;;10.29;100.00
62031;BME280;62035;52.094;5.112;2023-02-21T00:55:58;102172.59;;;10.48;100.00
62031;BME280;62035;52.094;5.112;2023-02-21T00:58:43;102175.00;;;10.40;100.00
62031;BME280;62035;52.094;5.112;2023-02-21T01:01:29;102171.50;;;10.39;100.00
62031;BME280;62035;52.094;5.112;2023-02-21T01:04:14;102161.69;;;10.16;100.00
62031;BME280;62035;52.094;5.112;2023-02-21T01:06:59;102171.16;;;10.20;100.00
62031;BME280;62035;52.094;5.112;2023-02-21T01:09:44;102170.03;;;10.35;100.00
62031;BME280;62035;52.094;5.112;2023-02-21T01:12:30;102158.88;;;10.30;100.00
62031;BME280;62035;52.094;5.112;2023-02-21T01:15:15;102172.69;;;10.35;100.00
62031;BME280;62035;52.094;5.112;2023-02-21T01:18:00;102167.38;;;10.35;100.00
62031;BME280;62035;52.094;5.112;2023-02-21T01:20:46;102160.59;;;10.42;100.00
62031;BME280;62035;52.094;5.112;2023-02-21T01:23:31;102163.34;;;10.29;100.00
62031;BME280;62035;52.094;5.112;2023-02-21T01:26:16;102153.97;;;10.48;100.00
62031;BME280;62035;52.094;5.112;2023-02-21T01:29:02;102152.66;;;10.53;100.00
62031;BME280;62035;52.094;5.112;2023-02-21T01:31:48;102144.63;;;10.42;100.00
62031;BME280;62035;52.094;5.112;2023-02-21T01:34:33;102134.59;;;10.34;100.00
62031;BME280;62035;52.094;5.112;2023-02-21T01:37:18;102128.41;;;10.34;100.00
62031;BME280;62035;52.094;5.112;2023-02-21T01:40:04;102121.63;;;10.30;100.00
62031;BME280;62035;52.094;5.112;2023-02-21T01:42:50;102127.06;;;10.28;100.00
62031;BME280;62035;52.094;5.112;2023-02-21T01:45:47;102134.94;;;10.30;100.00
62031;BME280;62035;52.094;5.112;2023-02-21T01:48:34;102124.63;;;10.25;100.00
62031;BME280;62035;52.094;5.112;2023-02-21T01:51:24;102119.09;;;10.28;100.00
62031;BME280;62035;52.094;5.112;2023-02-21T01:54:12;102123.06;;;10.23;100.00
62031;BME280;62035;52.094;5.112;2023-02-21T01:56:58;102124.19;;;10.43;100.00
62031;BME280;62035;52.094;5.112;2023-02-21T01:59:46;102128.41;;;10.34;100.00
62031;BME280;62035;52.094;5.112;2023-02-21T02:02:47;102126.94;;;10.30;100.00
62031;BME280;62035;52.094;5.112;2023-02-21T02:05:38;102123.72;;;10.38;100.00
62031;BME280;62035;52.094;5.112;2023-02-21T02:08:26;102124.00;;;10.22;100.00
62031;BME280;62035;52.094;5.112;2023-02-21T02:11:21;102122.91;;;10.59;100.00
62031;BME280;62035;52.094;5.112;2023-02-21T02:14:39;102113.34;;;10.57;100.00
62031;BME280;62035;52.094;5.112;2023-02-21T02:17:29;102108.19;;;10.78;100.00
62031;BME280;62035;52.094;5.112;2023-02-21T02:27:16;102110.72;;;10.68;100.00
62031;BME280;62035;52.094;5.112;2023-02-21T02:36:58;102113.09;;;10.60;100.00
62031;BME280;62035;52.094;5.112;2023-02-21T02:39:38;102110.09;;;10.64;100.00
62031;BME280;62035;52.094;5.112;2023-02-21T02:42:20;102108.75;;;10.59;100.00
62031;BME280;62035;52.094;5.112;2023-02-21T02:45:04;102108.38;;;10.52;100.00
62031;BME280;62035;52.094;5.112;2023-02-21T02:47:42;102095.03;;;10.30;100.00
62031;BME280;62035;52.094;5.112;2023-02-21T02:50:15;102102.53;;;10.47;100.00
62031;BME280;62035;52.094;5.112;2023-02-21T02:52:52;102107.16;;;10.56;100.00
62031;BME280;62035;52.094;5.112;2023-02-21T02:55:29;102107.25;;;10.44;100.00
62031;BME280;62035;52.094;5.112;2023-02-21T02:58:02;102109.91;;;10.44;100.00
62031;BME280;62035;52.094;5.112;2023-02-21T03:00:33;102107.13;;;10.34;100.00
62031;BME280;62035;52.094;5.112;2023-02-21T03:06:21;102111.97;;;10.40;100.00
62031;BME280;62035;52.094;5.112;2023-02-21T03:09:02;102100.50;;;10.51;100.00
62031;BME280;62035;52.094;5.112;2023-02-21T03:11:42;102091.81;;;10.60;100.00
62031;BME280;62035;52.094;5.112;2023-02-21T03:14:23;102096.53;;;10.56;100.00
62031;BME280;62035;52.094;5.112;2023-02-21T03:17:00;102078.13;;;10.53;100.00
62031;BME280;62035;52.094;5.112;2023-02-21T03:19:34;102094.09;;;10.53;100.00
62031;BME280;62035;52.094;5.112;2023-02-21T03:22:07;102095.66;;;10.45;100.00
62031;BME280;62035;52.094;5.112;2023-02-21T03:24:41;102112.59;;;10.55;100.00
62031;BME280;62035;52.094;5.112;2023-02-21T03:27:14;102112.38;;;10.58;100.00
62031;BME280;62035;52.094;5.112;2023-02-21T03:29:44;102108.41;;;10.63;100.00
62031;BME280;62035;52.094;5.112;2023-02-21T03:32:16;102106.72;;;10.85;100.00
62031;BME280;62035;52.094;5.112;2023-02-21T03:34:47;102107.44;;;10.87;100.00
62031;BME280;62035;52.094;5.112;2023-02-21T03:37:19;102107.19;;;10.67;100.00
62031;BME280;62035;52.094;5.112;2023-02-21T03:39:56;102107.44;;;10.64;100.00
62031;BME280;62035;52.094;5.112;2023-02-21T03:42:23;102105.72;;;10.52;100.00
62031;BME280;62035;52.094;5.112;2023-02-21T03:44:51;102109.06;;;10.43;100.00
62031;BME280;62035;52.094;5.112;2023-02-21T03:47:19;102100.72;;;10.48;100.00
62031;BME280;62035;52.094;5.112;2023-02-21T03:49:46;102091.66;;;10.50;100.00
62031;BME280;62035;52.094;5.112;2023-02-21T03:52:14;102091.09;;;10.69;100.00
62031;BME280;62035;52.094;5.112;2023-02-21T03:54:42;102098.47;;;10.65;100.00
62031;BME280;62035;52.094;5.112;2023-02-21T03:57:12;102085.88;;;10.56;100.00
62031;BME280;62035;52.094;5.112;2023-02-21T03:59:39;102093.28;;;10.64;100.00
62031;BME280;62035;52.094;5.112;2023-02-21T04:02:07;102092.75;;;10.48;100.00
62031;BME280;62035;52.094;5.112;2023-02-21T04:04:35;102092.91;;;10.68;100.00
62031;BME280;62035;52.094;5.112;2023-02-21T04:07:02;102101.50;;;10.61;100.00
62031;BME280;62035;52.094;5.112;2023-02-21T04:09:30;102083.84;;;10.71;100.00
62031;BME280;62035;52.094;5.112;2023-02-21T04:11:59;102082.72;;;10.51;100.00
62031;BME280;62035;52.094;5.112;2023-02-21T04:14:28;102091.78;;;10.49;100.00
62031;BME280;62035;52.094;5.112;2023-02-21T04:16:55;102093.94;;;10.32;100.00
62031;BME280;62035;52.094;5.112;2023-02-21T04:19:23;102092.75;;;10.37;100.00
62031;BME280;62035;52.094;5.112;2023-02-21T04:21:50;102085.41;;;10.62;100.00
62031;BME280;62035;52.094;5.112;2023-02-21T04:24:18;102077.78;;;10.58;100.00
62031;BME280;62035;52.094;5.112;2023-02-21T04:26:46;102085.50;;;10.50;100.00
62031;BME280;62035;52.094;5.112;2023-02-21T04:29:14;102100.66;;;10.60;100.00
62031;BME280;62035;52.094;5.112;2023-02-21T04:31:43;102085.72;;;10.47;100.00
62031;BME280;62035;52.094;5.112;2023-02-21T04:34:10;102084.31;;;10.65;100.00
62031;BME280;62035;52.094;5.112;2023-02-21T04:36:38;102082.97;;;10.59;100.00
62031;BME280;62035;52.094;5.112;2023-02-21T04:39:07;102087.94;;;10.64;100.00
62031;BME280;62035;52.094;5.112;2023-02-21T04:41:35;102092.50;;;10.51;100.00
62031;BME280;62035;52.094;5.112;2023-02-21T04:44:02;102087.47;;;10.70;100.00
62031;BME280;62035;52.094;5.112;2023-02-21T04:46:31;102077.91;;;10.67;100.00
62031;BME280;62035;52.094;5.112;2023-02-21T04:49:01;102066.28;;;10.68;100.00
62031;BME280;62035;52.094;5.112;2023-02-21T04:51:28;102073.06;;;10.61;100.00
62031;BME280;62035;52.094;5.112;2023-02-21T04:53:56;102079.34;;;10.60;100.00
62031;BME280;62035;52.094;5.112;2023-02-21T04:56:25;102065.06;;;10.50;100.00
62031;BME280;62035;52.094;5.112;2023-02-21T04:58:54;102068.06;;;10.46;100.00
62031;BME280;62035;52.094;5.112;2023-02-21T05:01:26;102064.06;;;10.40;100.00
62031;BME280;62035;52.094;5.112;2023-02-21T05:03:55;102072.19;;;10.50;100.00
62031;BME280;62035;52.094;5.112;2023-02-21T05:06:27;102085.84;;;10.45;100.00
62031;BME280;62035;52.094;5.112;2023-02-21T05:08:56;102086.22;;;10.52;100.00
62031;BME280;62035;52.094;5.112;2023-02-21T05:11:25;102083.91;;;10.47;100.00
62031;BME280;62035;52.094;5.112;2023-02-21T05:13:53;102069.41;;;10.51;100.00
62031;BME280;62035;52.094;5.112;2023-02-21T05:16:21;102078.03;;;10.66;100.00
62031;BME280;62035;52.094;5.112;2023-02-21T05:18:48;102076.03;;;10.46;100.00
62031;BME280;62035;52.094;5.112;2023-02-21T05:21:18;102079.09;;;10.52;100.00
62031;BME280;62035;52.094;5.112;2023-02-21T05:23:47;102065.78;;;10.52;100.00
62031;BME280;62035;52.094;5.112;2023-02-21T05:26:23;102068.09;;;10.57;100.00
62031;BME280;62035;52.094;5.112;2023-02-21T05:28:52;102074.75;;;10.62;100.00
62031;BME280;62035;52.094;5.112;2023-02-21T05:31:20;102086.84;;;10.55;100.00
62031;BME280;62035;52.094;5.112;2023-02-21T05:33:48;102080.91;;;10.52;100.00
62031;BME280;62035;52.094;5.112;2023-02-21T05:36:15;102081.66;;;10.65;100.00
62031;BME280;62035;52.094;5.112;2023-02-21T05:38:44;102074.25;;;10.57;100.00
62031;BME280;62035;52.094;5.112;2023-02-21T05:41:14;102077.25;;;10.42;100.00
62031;BME280;62035;52.094;5.112;2023-02-21T05:43:43;102074.97;;;10.48;100.00
62031;BME280;62035;52.094;5.112;2023-02-21T05:46:19;102088.66;;;10.55;100.00
62031;BME280;62035;52.094;5.112;2023-02-21T05:48:49;102095.56;;;10.68;100.00
62031;BME280;62035;52.094;5.112;2023-02-21T05:51:17;102084.41;;;10.52;100.00
62031;BME280;62035;52.094;5.112;2023-02-21T05:53:45;102082.38;;;10.67;100.00
62031;BME280;62035;52.094;5.112;2023-02-21T05:56:15;102074.03;;;10.60;100.00
62031;BME280;62035;52.094;5.112;2023-02-21T05:58:44;102081.53;;;10.66;100.00
62031;BME280;62035;52.094;5.112;2023-02-21T06:01:12;102088.91;;;10.63;100.00
62031;BME280;62035;52.094;5.112;2023-02-21T06:03:39;102092.41;;;10.52;100.00
62031;BME280;62035;52.094;5.112;2023-02-21T06:06:08;102098.00;;;10.72;100.00
62031;BME280;62035;52.094;5.112;2023-02-21T06:08:43;102106.84;;;10.72;100.00
62031;BME280;62035;52.094;5.112;2023-02-21T06:11:12;102102.59;;;10.92;100.00
62031;BME280;62035;52.094;5.112;2023-02-21T06:13:42;102084.44;;;10.97;100.00
62031;BME280;62035;52.094;5.112;2023-02-21T06:16:09;102078.50;;;10.93;100.00
62031;BME280;62035;52.094;5.112;2023-02-21T06:18:37;102086.63;;;10.69;100.00
62031;BME280;62035;52.094;5.112;2023-02-21T06:21:05;102085.78;;;10.69;100.00
62031;BME280;62035;52.094;5.112;2023-02-21T06:23:32;102091.94;;;10.92;100.00
62031;BME280;62035;52.094;5.112;2023-02-21T06:26:00;102095.34;;;10.72;100.00
62031;BME280;62035;52.094;5.112;2023-02-21T06:28:29;102092.31;;;10.76;100.00
62031;BME280;62035;52.094;5.112;2023-02-21T06:30:57;102092.66;;;10.60;100.00
62031;BME280;62035;52.094;5.112;2023-02-21T06:33:25;102097.97;;;10.60;100.00
62031;BME280;62035;52.094;5.112;2023-02-21T06:35:53;102087.44;;;10.59;100.00
62031;BME280;62035;52.094;5.112;2023-02-21T06:38:20;102094.97;;;10.65;100.00
62031;BME280;62035;52.094;5.112;2023-02-21T06:40:48;102101.00;;;10.56;100.00
62031;BME280;62035;52.094;5.112;2023-02-21T06:43:16;102104.66;;;10.66;100.00
62031;BME280;62035;52.094;5.112;2023-02-21T06:45:44;102101.97;;;10.66;100.00
62031;BME280;62035;52.094;5.112;2023-02-21T06:48:13;102104.06;;;10.74;100.00
62031;BME280;62035;52.094;5.112;2023-02-21T06:50:41;102113.72;;;10.86;100.00
62031;BME280;62035;52.094;5.112;2023-02-21T06:53:09;102112.16;;;10.72;100.00
62031;BME280;62035;52.094;5.112;2023-02-21T06:55:36;102103.69;;;10.78;100.00
62031;BME280;62035;52.094;5.112;2023-02-21T06:58:04;102107.56;;;10.74;100.00
62031;BME280;62035;52.094;5.112;2023-02-21T07:00:31;102099.94;;;10.69;100.00
62031;BME280;62035;52.094;5.112;2023-02-21T07:03:01;102111.53;;;10.57;100.00
62031;BME280;62035;52.094;5.112;2023-02-21T07:05:28;102103.06;;;10.63;100.00
62031;BME280;62035;52.094;5.112;2023-02-21T07:07:59;102104.38;;;10.58;100.00
62031;BME280;62035;52.094;5.112;2023-02-21T07:10:27;102105.63;;;10.65;100.00
62031;BME280;62035;52.094;5.112;2023-02-21T07:12:55;102100.53;;;10.62;100.00
62031;BME280;62035;52.094;5.112;2023-02-21T07:15:23;102100.25;;;10.54;100.00
62031;BME280;62035;52.094;5.112;2023-02-21T07:17:51;102101.84;;;10.56;100.00
62031;BME280;62035;52.094;5.112;2023-02-21T07:20:20;102102.56;;;10.58;100.00
62031;BME280;62035;52.094;5.112;2023-02-21T07:22:47;102104.63;;;10.55;100.00
62031;BME280;62035;52.094;5.112;2023-02-21T07:25:16;102105.97;;;10.60;100.00
62031;BME280;62035;52.094;5.112;2023-02-21T07:27:46;102107.44;;;10.76;100.00
62031;BME280;62035;52.094;5.112;2023-02-21T07:30:15;102093.66;;;10.71;100.00
62031;BME280;62035;52.094;5.112;2023-02-21T07:32:43;102103.91;;;10.64;100.00
62031;BME280;62035;52.094;5.112;2023-02-21T07:35:11;102101.72;;;10.58;100.00
62031;BME280;62035;52.094;5.112;2023-02-21T07:37:41;102094.25;;;10.74;100.00
62031;BME280;62035;52.094;5.112;2023-02-21T07:40:09;102094.13;;;10.64;100.00
62031;BME280;62035;52.094;5.112;2023-02-21T07:42:40;102102.38;;;10.73;100.00
62031;BME280;62035;52.094;5.112;2023-02-21T07:45:10;102099.69;;;10.73;100.00
62031;BME280;62035;52.094;5.112;2023-02-21T07:47:38;102107.91;;;10.81;100.00
62031;BME280;62035;52.094;5.112;2023-02-21T07:50:06;102111.94;;;10.75;100.00
62031;BME280;62035;52.094;5.112;2023-02-21T07:52:34;102109.63;;;10.71;100.00
62031;BME280;62035;52.094;5.112;2023-02-21T07:55:03;102114.22;;;10.91;100.00
62031;BME280;62035;52.094;5.112;2023-02-21T07:57:31;102103.44;;;11.26;100.00
62031;BME280;62035;52.094;5.112;2023-02-21T07:59:59;102104.31;;;11.15;100.00
62031;BME280;62035;52.094;5.112;2023-02-21T08:02:26;102101.41;;;10.96;100.00
62031;BME280;62035;52.094;5.112;2023-02-21T08:04:54;102106.34;;;11.00;100.00
62031;BME280;62035;52.094;5.112;2023-02-21T08:07:21;102108.91;;;10.91;100.00
62031;BME280;62035;52.094;5.112;2023-02-21T08:09:50;102110.25;;;11.08;100.00
62031;BME280;62035;52.094;5.112;2023-02-21T08:12:19;102104.19;;;10.94;100.00
62031;BME280;62035;52.094;5.112;2023-02-21T08:14:46;102112.78;;;10.76;100.00
62031;BME280;62035;52.094;5.112;2023-02-21T08:17:14;102125.34;;;10.85;100.00
62031;BME280;62035;52.094;5.112;2023-02-21T08:19:41;102123.06;;;11.02;100.00
62031;BME280;62035;52.094;5.112;2023-02-21T08:22:10;102118.97;;;11.10;100.00
62031;BME280;62035;52.094;5.112;2023-02-21T08:24:37;102110.22;;;10.96;100.00
62031;BME280;62035;52.094;5.112;2023-02-21T08:27:05;102116.91;;;11.13;100.00
62031;BME280;62035;52.094;5.112;2023-02-21T08:29:34;102111.94;;;11.09;100.00
62031;BME280;62035;52.094;5.112;2023-02-21T08:32:02;102118.47;;;11.05;100.00
62031;BME280;62035;52.094;5.112;2023-02-21T08:34:29;102112.75;;;10.87;100.00
62031;BME280;62035;52.094;5.112;2023-02-21T08:36:57;102113.75;;;11.08;100.00
62031;BME280;62035;52.094;5.112;2023-02-21T08:39:25;102111.09;;;10.97;100.00
62031;BME280;62035;52.094;5.112;2023-02-21T08:41:55;102110.47;;;10.93;100.00
62031;BME280;62035;52.094;5.112;2023-02-21T08:44:22;102107.81;;;10.93;100.00
62031;BME280;62035;52.094;5.112;2023-02-21T08:46:51;102104.72;;;10.42;100.00
62031;BME280;62035;52.094;5.112;2023-02-21T08:49:19;102115.91;;;10.69;100.00
62031;BME280;62035;52.094;5.112;2023-02-21T08:51:46;102115.78;;;10.71;100.00
62031;BME280;62035;52.094;5.112;2023-02-21T08:54:14;102110.56;;;10.81;100.00
62031;BME280;62035;52.094;5.112;2023-02-21T08:56:41;102102.59;;;10.81;100.00
62031;BME280;62035;52.094;5.112;2023-02-21T08:59:09;102109.50;;;10.83;100.00
62031;BME280;62035;52.094;5.112;2023-02-21T09:01:37;102113.00;;;10.84;100.00
62031;BME280;62035;52.094;5.112;2023-02-21T09:04:06;102116.75;;;10.70;100.00
62031;BME280;62035;52.094;5.112;2023-02-21T09:06:33;102118.19;;;10.63;100.00
62031;BME280;62035;52.094;5.112;2023-02-21T09:09:01;102106.94;;;10.82;100.00
62031;BME280;62035;52.094;5.112;2023-02-21T09:11:28;102115.06;;;10.91;100.00
62031;BME280;62035;52.094;5.112;2023-02-21T09:13:56;102101.63;;;10.93;100.00
62031;BME280;62035;52.094;5.112;2023-02-21T09:16:24;102090.63;;;10.75;100.00
62031;BME280;62035;52.094;5.112;2023-02-21T09:18:53;102101.88;;;10.79;100.00
62031;BME280;62035;52.094;5.112;2023-02-21T09:21:23;102100.78;;;10.92;100.00
62031;BME280;62035;52.094;5.112;2023-02-21T09:23:52;102099.69;;;10.84;100.00
62031;BME280;62035;52.094;5.112;2023-02-21T09:26:20;102093.16;;;10.88;100.00
62031;BME280;62035;52.094;5.112;2023-02-21T09:28:49;102078.03;;;10.77;100.00
62031;BME280;62035;52.094;5.112;2023-02-21T09:31:18;102088.06;;;10.85;100.00
62031;BME280;62035;52.094;5.112;2023-02-21T09:33:46;102091.22;;;10.90;100.00
62031;BME280;62035;52.094;5.112;2023-02-21T09:36:14;102091.47;;;10.87;100.00
62031;BME280;62035;52.094;5.112;2023-02-21T09:38:43;102093.53;;;10.94;100.00
62031;BME280;62035;52.094;5.112;2023-02-21T09:41:12;102097.66;;;11.10;100.00
62031;BME280;62035;52.094;5.112;2023-02-21T09:43:44;102066.75;;;10.96;100.00
62031;BME280;62035;52.094;5.112;2023-02-21T09:46:17;102076.44;;;10.63;100.00
62031;BME280;62035;52.094;5.112;2023-02-21T09:48:53;102075.75;;;10.73;100.00
62031;BME280;62035;52.094;5.112;2023-02-21T09:51:20;102086.75;;;10.90;100.00
62031;BME280;62035;52.094;5.112;2023-02-21T09:53:53;102070.13;;;10.42;100.00
62031;BME280;62035;52.094;5.112;2023-02-21T09:56:26;102083.59;;;10.74;100.00
62031;BME280;62035;52.094;5.112;2023-02-21T09:58:55;102080.44;;;10.80;100.00
62031;BME280;62035;52.094;5.112;2023-02-21T10:01:28;102078.38;;;10.84;100.00
62031;BME280;62035;52.094;5.112;2023-02-21T10:04:16;102072.31;;;10.82;100.00
62031;BME280;62035;52.094;5.112;2023-02-21T10:06:54;102070.16;;;10.87;100.00
62031;BME280;62035;52.094;5.112;2023-02-21T10:09:37;102069.19;;;10.99;100.00
62031;BME280;62035;52.094;5.112;2023-02-21T10:12:19;102068.22;;;10.89;100.00
62031;BME280;62035;52.094;5.112;2023-02-21T10:15:17;102063.13;;;10.86;100.00
62031;BME280;62035;52.094;5.112;2023-02-21T10:18:12;102071.63;;;11.02;100.00
62031;BME280;62035;52.094;5.112;2023-02-21T10:20:50;102073.53;;;10.89;100.00
62031;BME280;62035;52.094;5.112;2023-02-21T10:23:23;102070.28;;;11.08;100.00
62031;BME280;62035;52.094;5.112;2023-02-21T10:26:00;102070.63;;;10.81;100.00
62031;BME280;62035;52.094;5.112;2023-02-21T10:28:34;102071.13;;;11.08;100.00
62031;BME280;62035;52.094;5.112;2023-02-21T10:31:07;102067.63;;;11.08;100.00
62031;BME280;62035;52.094;5.112;2023-02-21T10:33:38;102067.63;;;10.96;100.00
62031;BME280;62035;52.094;5.112;2023-02-21T10:36:11;102071.97;;;10.97;100.00
62031;BME280;62035;52.094;5.112;2023-02-21T10:38:42;102063.84;;;11.10;100.00
62031;BME280;62035;52.094;5.112;2023-02-21T10:41:26;102076.56;;;11.18;100.00
62031;BME280;62035;52.094;5.112;2023-02-21T10:44:00;102073.19;;;11.16;100.00
62031;BME280;62035;52.094;5.112;2023-02-21T10:46:36;102081.19;;;11.16;100.00
62031;BME280;62035;52.094;5.112;2023-02-21T10:49:19;102071.94;;;11.31;100.00
62031;BME280;62035;52.094;5.112;2023-02-21T10:52:03;102067.81;;;11.38;100.00
62031;BME280;62035;52.094;5.112;2023-02-21T10:54:35;102072.53;;;11.23;100.00
62031;BME280;62035;52.094;5.112;2023-02-21T10:57:06;102076.69;;;11.16;100.00
62031;BME280;62035;52.094;5.112;2023-02-21T10:59:40;102064.78;;;11.20;100.00
62031;BME280;62035;52.094;5.112;2023-02-21T11:02:28;102071.81;;;11.21;100.00
62031;BME280;62035;52.094;5.112;2023-02-21T11:05:08;102076.66;;;11.39;100.00
62031;BME280;62035;52.094;5.112;2023-02-21T11:07:41;102067.91;;;11.36;100.00
62031;BME280;62035;52.094;5.112;2023-02-21T11:10:26;102066.09;;;11.37;100.00
62031;BME280;62035;52.094;5.112;2023-02-21T11:13:05;102061.38;;;11.29;100.00
62031;BME280;62035;52.094;5.112;2023-02-21T11:15:39;102059.69;;;11.40;100.00
62031;BME280;62035;52.094;5.112;2023-02-21T11:18:13;102056.06;;;11.29;100.00
62031;BME280;62035;52.094;5.112;2023-02-21T11:20:44;102071.16;;;11.51;100.00
62031;BME280;62035;52.094;5.112;2023-02-21T11:23:18;102054.59;;;11.36;100.00
62031;BME280;62035;52.094;5.112;2023-02-21T11:25:48;102054.47;;;11.38;100.00
62031;BME280;62035;52.094;5.112;2023-02-21T11:28:26;102058.38;;;11.23;100.00
62031;BME280;62035;52.094;5.112;2023-02-21T11:31:07;102042.91;;;11.17;100.00
62031;BME280;62035;52.094;5.112;2023-02-21T11:33:49;102062.03;;;10.99;100.00
62031;BME280;62035;52.094;5.112;2023-02-21T11:36:26;102047.41;;;10.94;100.00
62031;BME280;62035;52.094;5.112;2023-02-21T11:39:01;102057.94;;;11.07;100.00
62031;BME280;62035;52.094;5.112;2023-02-21T11:41:36;102060.59;;;10.95;100.00
62031;BME280;62035;52.094;5.112;2023-02-21T11:44:24;102058.41;;;10.89;100.00
62031;BME280;62035;52.094;5.112;2023-02-21T11:47:02;102056.34;;;10.93;100.00
62031;BME280;62035;52.094;5.112;2023-02-21T11:49:46;102054.91;;;10.89;100.00
62031;BME280;62035;52.094;5.112;2023-02-21T11:52:21;102059.03;;;10.93;100.00
62031;BME280;62035;52.094;5.112;2023-02-21T11:54:53;102056.84;;;10.98;100.00
62031;BME280;62035;52.094;5.112;2023-02-21T11:57:27;102053.44;;;10.96;100.00
62031;BME280;62035;52.094;5.112;2023-02-21T12:00:10;102048.38;;;11.04;100.00
62031;BME280;62035;52.094;5.112;2023-02-21T12:03:00;102046.66;;;10.81;100.00
62031;BME280;62035;52.094;5.112;2023-02-21T12:05:44;102044.41;;;10.76;100.00
62031;BME280;62035;52.094;5.112;2023-02-21T12:08:36;102047.78;;;10.78;100.00
62031;BME280;62035;52.094;5.112;2023-02-21T12:14:15;102053.56;;;10.94;100.00
62031;BME280;62035;52.094;5.112;2023-02-21T12:17:03;102049.44;;;10.90;100.00
62031;BME280;62035;52.094;5.112;2023-02-21T12:19:54;102037.72;;;11.04;100.00
62031;BME280;62035;52.094;5.112;2023-02-21T12:22:51;102029.94;;;11.12;100.00
62031;BME280;62035;52.094;5.112;2023-02-21T12:25:31;102027.06;;;11.04;100.00
62031;BME280;62035;52.094;5.112;2023-02-21T12:28:13;102019.31;;;11.01;100.00
62031;BME280;62035;52.094;5.112;2023-02-21T12:31:04;102030.94;;;10.89;100.00
62031;BME280;62035;52.094;5.112;2023-02-21T12:33:54;102024.41;;;10.93;100.00
62031;BME280;62035;52.094;5.112;2023-02-21T12:36:42;102031.41;;;11.16;100.00
62031;BME280;62035;52.094;5.112;2023-02-21T12:39:34;102025.78;;;11.30;100.00
62031;BME280;62035;52.094;5.112;2023-02-21T12:42:25;102014.22;;;11.09;100.00
62031;BME280;62035;52.094;5.112;2023-02-21T12:45:17;102013.25;;;11.10;100.00
62031;BME280;62035;52.094;5.112;2023-02-21T12:48:04;101998.13;;;10.99;100.00
62031;BME280;62035;52.094;5.112;2023-02-21T12:50:40;102006.22;;;10.98;100.00
62031;BME280;62035;52.094;5.112;2023-02-21T12:53:15;102009.25;;;11.05;100.00
62031;BME280;62035;52.094;5.112;2023-02-21T12:55:50;102008.63;;;11.12;100.00
62031;BME280;62035;52.094;5.112;2023-02-21T12:58:26;101999.56;;;10.92;100.00
62031;BME280;62035;52.094;5.112;2023-02-21T13:00:59;102014.94;;;11.00;100.00
62031;BME280;62035;52.094;5.112;2023-02-21T13:03:41;101991.47;;;10.94;100.00
62031;BME280;62035;52.094;5.112;2023-02-21T13:06:23;102005.03;;;10.91;100.00
62031;BME280;62035;52.094;5.112;2023-02-21T13:09:01;102005.63;;;10.94;100.00
62031;BME280;62035;52.094;5.112;2023-02-21T13:11:41;102006.59;;;11.05;100.00
62031;BME280;62035;52.094;5.112;2023-02-21T13:14:17;101999.03;;;11.21;100.00
62031;BME280;62035;52.094;5.112;2023-02-21T13:16:51;101995.25;;;11.23;100.00
62031;BME280;62035;52.094;5.112;2023-02-21T13:19:19;101985.69;;;11.21;100.00
62031;BME280;62035;52.094;5.112;2023-02-21T13:22:00;101986.91;;;11.28;100.00
62031;BME280;62035;52.094;5.112;2023-02-21T13:24:58;101985.09;;;11.28;100.00
62031;BME280;62035;52.094;5.112;2023-02-21T13:27:47;101982.66;;;11.25;100.00
62031;BME280;62035;52.094;5.112;2023-02-21T13:30:21;101983.47;;;11.05;100.00
62031;BME280;62035;52.094;5.112;2023-02-21T13:32:55;101982.47;;;11.17;100.00
62031;BME280;62035;52.094;5.112;2023-02-21T13:35:28;101972.25;;;11.22;100.00
62031;BME280;62035;52.094;5.112;2023-02-21T13:38:01;101968.88;;;11.20;100.00
62031;BME280;62035;52.094;5.112;2023-02-21T13:40:35;101964.56;;;11.08;100.00